Tyrone, Missouri
Current Conditions -  °F | °C
As of 8:53 PM on Sunday 23 Nov 2014 (Local Time) from KUNO Reporting Station
Overcast Overcast  
Wind Chill: 57°   Ceiling: 700
Heat Index: 57°   Visibility: 10mi
Dew Point: 54°   Wind: 9mph
Humidity: 89%   Direction: 180°S
Pressure: 29.31"   Gusts: NA
Location:  37.3091°N, 91.9516°W
Report Text: KUNO 240253Z AUTO 18008KT 10SM BKN007 OVC010 14/12 A2931 RMK AO2 LTG DSNT W-NE RAB19E38 CIG 004V009 SLP920 P0001 60001 T01390122 58009
Loading
Personal Weather Stations






























Interactive Weather Map New forecast layout! Learn more

10-Day Weather Forecast

Advertisements
Track Severe Weather on mobile